Big Bear Station Historical Data
Daily Summary for February 6, 2017 Units:  English    Metric   Both
« Previous Day
Next Day »
Daily Weekly Monthly Yearly Custom
  High: Low: Average:
Temperature: 40.5 °F 33.4 °F 36.4 °F
Dew Point: 37.6 °F 23.6 °F 33.8 °F
Humidity: 98 % 67 % 90 %
Wind Speed: 8.3 mph 0.0 mph 3.2 mph
Wind Gust: -999.0 mph - -
Wind:- - WSW
Pressure: 30.13 in 30.02 in -
Precipitation: 0.13 in    
Historical Graphs
 
 
Tabular Data for February 6, 2017
Time Temperature Dew Point Pressure Wind Wind Speed Wind Gust Humidity Rainfall Rate (Hourly)
00:12 33.4 °F 23.6 °F 30.05 in NNW 3.7 mph -999.0 mph 67 % 0 in
00:28 34.3 °F 25.5 °F 30.05 in NNW 2.7 mph -999.0 mph 70 % 0 in
00:43 34.9 °F 26.8 °F 30.05 in NE 1.1 mph -999.0 mph 72 % 0 in
00:58 34.7 °F 27.3 °F 30.05 in Calm   -999.0 mph 74 % 0 in
01:13 35.1 °F 27.6 °F 30.05 in NE 2.2 mph -999.0 mph 74 % 0 in
01:28 34.7 °F 27.9 °F 30.05 in WNW 3.2 mph -999.0 mph 76 % 0 in
01:44 34.5 °F 28.3 °F 30.05 in West 3.2 mph -999.0 mph 78 % 0 in
01:59 35.8 °F 32.0 °F 30.03 in NW 4.7 mph -999.0 mph 86 % 0 in
02:14 35.8 °F 32.0 °F 30.04 in NNW 1.7 mph -999.0 mph 86 % 0 in
02:30 35.2 °F 31.7 °F 30.04 in NW 2.7 mph -999.0 mph 87 % 0 in
02:45 35.1 °F 31.6 °F 30.03 in West 4.2 mph -999.0 mph 87 % 0 in
03:00 36.1 °F 34.0 °F 30.03 in SSE 3.7 mph -999.0 mph 92 % 0 in
03:15 37.0 °F 34.9 °F 30.03 in West 8.3 mph -999.0 mph 92 % 0 in
03:31 36.9 °F 34.8 °F 30.02 in WNW 3.2 mph -999.0 mph 92 % 0 in
03:46 36.7 °F 34.9 °F 30.02 in SSW 1.7 mph -999.0 mph 93 % 0 in
04:01 36.3 °F 34.7 °F 30.03 in South 2.7 mph -999.0 mph 94 % 0 in
04:17 36.3 °F 34.7 °F 30.03 in NNW 2.2 mph -999.0 mph 94 % 0 in
04:32 36.0 °F 34.7 °F 30.03 in Calm   -999.0 mph 95 % 0 in
04:47 36.0 °F 35.0 °F 30.04 in Calm   -999.0 mph 96 % 0 in
05:03 35.8 °F 34.8 °F 30.02 in NNW 2.7 mph -999.0 mph 96 % 0 in
05:18 35.8 °F 34.8 °F 30.02 in West 1.7 mph -999.0 mph 96 % 0 in
05:33 36.0 °F 35.0 °F 30.03 in WSW 4.2 mph -999.0 mph 96 % 0 in
05:48 36.0 °F 35.0 °F 30.03 in North 2.2 mph -999.0 mph 96 % 0 in
06:03 35.8 °F 34.8 °F 30.05 in SE 1.7 mph -999.0 mph 96 % 0 in
06:19 36.0 °F 34.7 °F 30.05 in WSW 3.2 mph -999.0 mph 95 % 0 in
06:34 36.0 °F 34.7 °F 30.05 in SW 3.7 mph -999.0 mph 95 % 0 in
06:49 36.5 °F 35.2 °F 30.05 in SSW 5.8 mph -999.0 mph 95 % 0 in
07:05 36.1 °F 34.8 °F 30.05 in NNW 4.7 mph -999.0 mph 95 % 0 in
07:20 36.0 °F 34.7 °F 30.06 in SSW 1.7 mph -999.0 mph 95 % 0 in
07:35 36.3 °F 35.3 °F 30.06 in SW 2.7 mph -999.0 mph 96 % 0 in
07:50 36.3 °F 35.3 °F 30.06 in SW 1.7 mph -999.0 mph 96 % 0 in
08:06 36.7 °F 35.7 °F 30.06 in WSW 3.2 mph -999.0 mph 96 % 0 in
08:21 37.0 °F 36.0 °F 30.07 in SSE 3.7 mph -999.0 mph 96 % 0 in
08:36 37.2 °F 36.2 °F 30.07 in West 2.2 mph -999.0 mph 96 % 0 in
08:51 37.6 °F 36.3 °F 30.08 in South 3.2 mph -999.0 mph 95 % 0 in
09:06 38.5 °F 36.7 °F 30.09 in SW 2.7 mph -999.0 mph 93 % 0 in
09:22 38.8 °F 36.7 °F 30.09 in NNW 2.7 mph -999.0 mph 92 % 0 in
09:38 39.6 °F 36.9 °F 30.09 in SSW 2.7 mph -999.0 mph 90 % 0 in
09:53 40.3 °F 37.6 °F 30.09 in West 4.2 mph -999.0 mph 90 % 0 in
10:08 40.3 °F 37.0 °F 30.07 in South 2.2 mph -999.0 mph 88 % 0 in
10:23 40.5 °F 37.5 °F 30.06 in SW 3.2 mph -999.0 mph 89 % 0 in
10:38 39.6 °F 36.9 °F 30.06 in SE 6.3 mph -999.0 mph 90 % 0 in
10:54 39.9 °F 37.2 °F 30.07 in NW 1.1 mph -999.0 mph 90 % 0 in
11:09 39.4 °F 36.7 °F 30.07 in North 6.3 mph -999.0 mph 90 % 0 in
11:24 38.8 °F 36.4 °F 30.07 in SSW 2.7 mph -999.0 mph 91 % 0 in
11:40 39.0 °F 36.6 °F 30.06 in North 4.2 mph -999.0 mph 91 % 0 in
11:55 39.2 °F 36.8 °F 30.06 in SSW 4.7 mph -999.0 mph 91 % 0 in
12:10 39.2 °F 36.8 °F 30.06 in WNW 2.2 mph -999.0 mph 91 % 0 in
12:25 39.0 °F 36.3 °F 30.05 in SSW 3.7 mph -999.0 mph 90 % 0 in
12:40 38.8 °F 35.8 °F 30.06 in ESE 2.2 mph -999.0 mph 89 % 0 in
12:56 39.2 °F 36.2 °F 30.05 in WNW 7.3 mph -999.0 mph 89 % 0 in
13:11 39.4 °F 36.1 °F 30.06 in SSE 4.7 mph -999.0 mph 88 % 0 in
13:26 39.7 °F 35.9 °F 30.05 in ESE 2.7 mph -999.0 mph 86 % 0 in
13:41 40.1 °F 36.5 °F 30.05 in ESE 3.7 mph -999.0 mph 87 % 0 in
13:57 39.9 °F 36.1 °F 30.05 in NW 3.2 mph -999.0 mph 86 % 0 in
14:12 39.4 °F 35.6 °F 30.05 in WNW 2.7 mph -999.0 mph 86 % 0 in
14:27 38.3 °F 34.8 °F 30.05 in WSW 3.2 mph -999.0 mph 87 % 0 in
14:43 38.1 °F 35.1 °F 30.05 in North 1.7 mph -999.0 mph 89 % 0 in
14:58 38.8 °F 35.3 °F 30.05 in WSW 4.2 mph -999.0 mph 87 % 0 in
15:13 37.8 °F 34.9 °F 30.06 in South 4.2 mph -999.0 mph 89 % 0 in
15:29 37.6 °F 35.2 °F 30.06 in West 2.7 mph -999.0 mph 91 % 0 in
15:44 37.8 °F 34.9 °F 30.05 in NNW 4.7 mph -999.0 mph 89 % 0 in
16:00 37.6 °F 34.4 °F 30.06 in West 2.2 mph -999.0 mph 88 % 0 in
16:15 37.2 °F 34.3 °F 30.06 in SSE 3.7 mph -999.0 mph 89 % 0 in
16:30 36.7 °F 34.3 °F 30.06 in ESE 2.2 mph -999.0 mph 91 % 0 in
16:45 36.1 °F 33.7 °F 30.07 in SSE 2.7 mph -999.0 mph 91 % 0 in
17:00 35.8 °F 33.2 °F 30.07 in NNW 1.7 mph -999.0 mph 90 % 0 in
17:16 35.2 °F 32.0 °F 30.07 in NW 6.8 mph -999.0 mph 88 % 0 in
17:32 34.7 °F 31.8 °F 30.07 in NE 4.7 mph -999.0 mph 89 % 0 in
17:47 34.3 °F 31.4 °F 30.08 in South 5.8 mph -999.0 mph 89 % 0 in
18:03 34.2 °F 31.6 °F 30.07 in NNW 5.3 mph -999.0 mph 90 % 0 in
18:18 34.0 °F 31.9 °F 30.07 in South 5.8 mph -999.0 mph 92 % 0 in
18:33 34.2 °F 32.4 °F 30.07 in NNW 2.7 mph -999.0 mph 93 % 0 in
18:48 34.0 °F 32.2 °F 30.08 in SSW 4.2 mph -999.0 mph 93 % 0 in
19:04 34.0 °F 32.2 °F 30.08 in ESE 2.7 mph -999.0 mph 93 % 0 in
19:19 34.0 °F 32.5 °F 30.09 in SE 1.7 mph -999.0 mph 94 % 0 in
19:34 33.6 °F 31.5 °F 30.09 in South 1.7 mph -999.0 mph 92 % 0 in
19:50 33.6 °F 32.3 °F 30.09 in West 2.2 mph -999.0 mph 95 % 0 in
20:05 33.6 °F 31.3 °F 30.09 in North 4.2 mph -999.0 mph 91 % 0 in
20:20 33.8 °F 31.5 °F 30.10 in NNE 1.7 mph -999.0 mph 91 % 0 in
20:35 33.8 °F 32.0 °F 30.10 in West 1.1 mph -999.0 mph 93 % 0 in
20:50 33.8 °F 32.0 °F 30.10 in West 2.7 mph -999.0 mph 93 % 0 in
21:06 34.0 °F 32.2 °F 30.10 in NNW 5.3 mph -999.0 mph 93 % 0 in
21:21 34.0 °F 32.5 °F 30.11 in SE 2.2 mph -999.0 mph 94 % 0 in
21:36 34.0 °F 32.7 °F 30.11 in NW 1.7 mph -999.0 mph 95 % 0 in
21:51 34.2 °F 33.4 °F 30.11 in WNW 4.2 mph -999.0 mph 97 % 0 in
22:06 34.2 °F 33.4 °F 30.11 in SSE 1.1 mph -999.0 mph 97 % 0 in
22:22 35.1 °F 34.6 °F 30.11 in North 2.2 mph -999.0 mph 98 % 0 in
22:37 35.2 °F 33.6 °F 30.11 in West 1.7 mph -999.0 mph 94 % 0 in
22:53 35.8 °F 33.2 °F 30.12 in NNW 5.3 mph -999.0 mph 90 % 0 in
23:08 35.8 °F 32.3 °F 30.13 in NNW 6.3 mph -999.0 mph 87 % 0 in
23:23 35.6 °F 31.8 °F 30.13 in SSE 6.3 mph -999.0 mph 86 % 0 in
23:39 35.4 °F 31.0 °F 30.13 in NNW 3.7 mph -999.0 mph 84 % 0 in
23:54 35.6 °F 31.5 °F 30.13 in SSE 1.7 mph -999.0 mph 85 % 0 in
Big Bear CA Weather
Compliments of Weather Underground - 1.5 mb